Time;durP1;ratioP1;P1;durP2;ratioP2;P2;SDS_P1;SDS_P2;PMS_P1;PMS_P2;Temp;Humidity;BMP_temperature;BMP_pressure;BME280_temperature;BME280_humidity;BME280_pressure;Samples;Min_cycle;Max_cycle;Signal;HPM_P1;HPM_P2
2023/11/05 00:00:12;;;;;;;3.40;1.50;;;;;;;11.90;100.00;99446.16;5034796;28;20039;-70
2023/11/05 00:02:37;;;;;;;2.22;1.30;;;;;;;11.75;100.00;99472.66;5051986;28;20029;-67
2023/11/05 00:05:03;;;;;;;3.45;1.45;;;;;;;11.77;100.00;99490.78;5052628;28;20494;-68
2023/11/05 00:07:28;;;;;;;2.10;1.35;;;;;;;11.92;100.00;99514.28;5034629;28;20024;-67
2023/11/05 00:09:54;;;;;;;5.20;2.05;;;;;;;11.95;100.00;99516.94;5052202;28;20536;-69
2023/11/05 00:12:20;;;;;;;2.33;1.20;;;;;;;11.81;100.00;99490.84;5052163;28;20032;-70
2023/11/05 00:14:45;;;;;;;2.53;1.40;;;;;;;11.84;100.00;99499.47;5051738;28;20480;-69
2023/11/05 00:17:11;;;;;;;1.30;1.20;;;;;;;11.95;100.00;99521.22;5051926;28;20039;-68
2023/11/05 00:19:36;;;;;;;2.28;1.20;;;;;;;12.07;100.00;99530.94;5051907;28;20391;-66
2023/11/05 00:22:01;;;;;;;6.35;1.33;;;;;;;12.10;100.00;99525.78;5034454;28;20402;-67
2023/11/05 00:24:27;;;;;;;4.00;1.25;;;;;;;12.03;100.00;99504.13;5051907;28;20060;-67
2023/11/05 00:26:53;;;;;;;1.92;1.35;;;;;;;11.91;100.00;99503.91;5052726;28;20522;-67
2023/11/05 00:29:18;;;;;;;2.33;1.10;;;;;;;11.77;100.00;99496.78;5052172;28;20876;-67
2023/11/05 00:31:44;;;;;;;5.65;1.40;;;;;;;11.72;100.00;99518.28;5051950;28;20025;-66
2023/11/05 00:34:10;;;;;;;1.63;1.00;;;;;;;11.51;100.00;99518.75;5052011;28;20023;-67
2023/11/05 00:36:35;;;;;;;2.28;1.17;;;;;;;11.35;100.00;99510.72;5052335;28;20066;-67
2023/11/05 00:39:01;;;;;;;1.75;1.10;;;;;;;11.43;100.00;99532.41;5051881;28;20043;-66
2023/11/05 00:41:26;;;;;;;2.75;1.48;;;;;;;11.24;100.00;99527.75;5051648;28;20380;-70
2023/11/05 00:43:51;;;;;;;2.38;1.20;;;;;;;11.13;100.00;99512.91;5051885;28;20486;-66
2023/11/05 00:46:18;;;;;;;3.42;0.93;;;;;;;11.18;100.00;99538.84;5033598;28;20056;-67
2023/11/05 00:48:43;;;;;;;1.58;1.13;;;;;;;10.38;100.00;99406.47;5051894;28;20434;-67
2023/11/05 00:51:09;;;;;;;1.88;1.17;;;;;;;11.18;100.00;99549.19;5033867;28;20024;-66
2023/11/05 00:53:34;;;;;;;1.70;1.10;;;;;;;11.01;100.00;99541.09;5051851;28;20489;-68
2023/11/05 00:55:59;;;;;;;1.48;1.20;;;;;;;10.99;100.00;99555.66;5033852;28;20114;-66
2023/11/05 00:58:25;;;;;;;1.75;1.25;;;;;;;10.85;100.00;99545.06;5051245;28;20107;-66
2023/11/05 01:00:50;;;;;;;1.70;1.20;;;;;;;10.67;100.00;99532.66;5033296;28;20029;-66
2023/11/05 01:03:16;;;;;;;1.60;1.13;;;;;;;10.25;100.00;99474.94;5051659;28;20028;-67
2023/11/05 01:05:42;;;;;;;2.08;1.42;;;;;;;10.74;100.00;99560.34;5051149;28;20028;-71
2023/11/05 01:08:07;;;;;;;3.58;1.50;;;;;;;10.83;100.00;99567.41;5051461;28;20057;-67
2023/11/05 01:10:32;;;;;;;4.65;1.75;;;;;;;10.76;100.00;99581.88;5051252;28;20080;-65
2023/11/05 01:12:58;;;;;;;3.65;1.92;;;;;;;10.66;100.00;99556.72;5051579;28;20032;-67
2023/11/05 01:15:23;;;;;;;3.55;2.08;;;;;;;10.57;100.00;99529.00;5032697;28;20057;-68
2023/11/05 01:17:49;;;;;;;3.22;2.05;;;;;;;10.79;100.00;99557.84;5051244;28;20502;-68
2023/11/05 01:20:14;;;;;;;5.13;2.88;;;;;;;10.62;100.00;99536.84;5051060;28;20028;-67
2023/11/05 01:22:40;;;;;;;5.68;2.10;;;;;;;10.94;100.00;99573.66;5050970;28;20021;-67
2023/11/05 01:25:06;;;;;;;3.10;1.80;;;;;;;10.94;100.00;99563.34;5050971;28;20029;-71
2023/11/05 01:27:31;;;;;;;3.28;2.00;;;;;;;10.83;100.00;99539.00;5050849;28;20109;-67
2023/11/05 01:29:57;;;;;;;3.42;2.28;;;;;;;10.86;100.00;99549.38;5050684;28;20025;-67
2023/11/05 01:32:22;;;;;;;5.60;2.40;;;;;;;10.90;100.00;99555.50;5051182;28;20135;-67
2023/11/05 01:34:48;;;;;;;6.63;2.65;;;;;;;10.97;100.00;99570.28;5050895;28;20052;-68
2023/11/05 01:37:13;;;;;;;2.42;1.85;;;;;;;10.79;100.00;99537.19;5051415;28;20071;-68
2023/11/05 01:39:39;;;;;;;6.20;2.22;;;;;;;10.92;100.00;99569.31;5051066;28;20036;-70
2023/11/05 01:42:04;;;;;;;3.80;2.15;;;;;;;10.99;100.00;99569.47;5050212;28;20785;-67
2023/11/05 01:44:30;;;;;;;3.78;2.38;;;;;;;9.65;100.00;99344.69;5050546;28;20041;-70
2023/11/05 01:46:56;;;;;;;5.03;2.45;;;;;;;11.05;100.00;99560.09;5050825;28;20457;-67
2023/11/05 01:49:21;;;;;;;3.67;2.60;;;;;;;11.08;100.00;99558.44;5050729;28;20021;-69
2023/11/05 01:51:47;;;;;;;4.78;2.53;;;;;;;11.08;100.00;99561.03;5051180;28;20043;-68
2023/11/05 01:54:13;;;;;;;4.07;2.40;;;;;;;11.05;100.00;99560.09;5050279;28;20029;-69
2023/11/05 01:56:39;;;;;;;3.60;2.40;;;;;;;10.98;100.00;99559.13;5015332;28;20487;-68
2023/11/05 01:59:05;;;;;;;3.80;2.97;;;;;;;10.80;100.00;99542.41;5050939;28;20036;-69
2023/11/05 02:01:30;;;;;;;5.20;2.50;;;;;;;10.58;100.00;99511.78;5050825;28;20060;-73
2023/11/05 02:03:56;;;;;;;4.00;2.60;;;;;;;10.67;100.00;99535.22;5050572;28;20530;-67
2023/11/05 02:06:21;;;;;;;4.30;2.53;;;;;;;10.58;100.00;99537.59;5008462;28;20049;-67
2023/11/05 02:08:47;;;;;;;6.18;3.08;;;;;;;10.49;100.00;99541.72;5008653;28;20107;-69
2023/11/05 02:11:12;;;;;;;4.82;3.17;;;;;;;10.39;100.00;99529.44;5008411;28;20100;-68
2023/11/05 02:13:46;;;;;;;9.32;3.22;;;;;;;10.38;100.00;99530.31;5008330;28;20100;-69
2023/11/05 02:16:12;;;;;;;4.65;3.40;;;;;;;10.00;100.00;99471.78;5008314;28;20491;-68
2023/11/05 02:18:38;;;;;;;6.22;3.35;;;;;;;9.87;100.00;99437.13;5008401;28;20081;-68
2023/11/05 02:21:05;;;;;;;3.65;3.08;;;;;;;10.41;100.00;99539.81;5008154;28;20073;-71
2023/11/05 02:23:32;;;;;;;8.57;3.42;;;;;;;10.06;100.00;99486.53;5008425;28;20034;-67
2023/11/05 02:25:57;;;;;;;7.50;3.78;;;;;;;10.11;100.00;99495.25;5008178;28;20480;-68
2023/11/05 02:28:23;;;;;;;5.38;3.40;;;;;;;10.33;100.00;99547.31;5008183;28;20053;-68
2023/11/05 02:30:54;;;;;;;8.00;3.72;;;;;;;10.38;100.00;99561.25;5008412;28;20026;-68
2023/11/05 02:33:20;;;;;;;7.10;4.32;;;;;;;10.20;100.00;99559.06;5008317;28;20106;-67
2023/11/05 02:35:46;;;;;;;6.80;4.18;;;;;;;10.22;100.00;99554.84;5008162;28;20037;-68
2023/11/05 02:38:11;;;;;;;7.95;4.35;;;;;;;10.17;100.00;99530.66;5028247;28;20056;-68
2023/11/05 02:40:37;;;;;;;6.10;4.57;;;;;;;10.31;100.00;99534.41;5050649;28;20377;-68
2023/11/05 02:43:02;;;;;;;8.93;4.25;;;;;;;10.02;100.00;99479.59;5050081;28;20040;-69
2023/11/05 02:45:27;;;;;;;5.65;3.45;;;;;;;10.38;100.00;99560.38;5050395;28;20028;-68
2023/11/05 02:47:53;;;;;;;6.18;3.67;;;;;;;10.27;100.00;99563.56;5050099;28;20036;-68
2023/11/05 02:50:18;;;;;;;6.05;4.00;;;;;;;10.29;100.00;99567.06;5050076;28;20036;-67
2023/11/05 02:52:44;;;;;;;8.15;3.80;;;;;;;10.16;100.00;99562.44;5050336;28;20025;-69
2023/11/05 02:55:09;;;;;;;6.53;3.60;;;;;;;10.12;100.00;99561.47;5049949;28;20525;-69
2023/11/05 02:57:36;;;;;;;4.72;3.17;;;;;;;9.98;100.00;99543.09;5050467;28;20494;-69
2023/11/05 03:00:04;;;;;;;5.25;3.35;;;;;;;10.03;100.00;99536.34;5050190;28;20033;-68
2023/11/05 03:02:29;;;;;;;5.68;3.30;;;;;;;10.09;100.00;99543.34;5049838;28;20692;-69
2023/11/05 03:04:58;;;;;;;8.25;3.45;;;;;;;10.12;100.00;99548.59;5051247;28;20033;-68
2023/11/05 03:07:24;;;;;;;4.72;3.08;;;;;;;10.06;100.00;99535.53;5054346;28;20025;-71
2023/11/05 03:09:49;;;;;;;4.28;3.17;;;;;;;10.03;100.00;99535.44;5054203;28;20154;-71
2023/11/05 03:12:15;;;;;;;5.75;3.28;;;;;;;10.22;100.00;99553.94;5054061;28;20449;-68
2023/11/05 03:14:40;;;;;;;8.30;3.53;;;;;;;10.33;100.00;99567.97;5053913;28;20033;-67
2023/11/05 03:17:06;;;;;;;5.65;3.65;;;;;;;10.25;100.00;99580.69;5053794;28;20033;-68
2023/11/05 03:19:32;;;;;;;6.28;3.95;;;;;;;10.25;100.00;99585.84;5054080;28;20025;-68
2023/11/05 03:21:57;;;;;;;4.55;3.47;;;;;;;10.23;100.00;99586.66;5053642;28;20025;-67
2023/11/05 03:24:23;;;;;;;5.43;3.60;;;;;;;10.35;100.00;99586.94;5053666;28;20029;-67
2023/11/05 03:26:48;;;;;;;5.05;3.80;;;;;;;10.16;100.00;99578.75;5053919;28;20021;-65
2023/11/05 03:29:15;;;;;;;5.95;3.55;;;;;;;10.01;100.00;99583.56;5053550;28;20426;-66
2023/11/05 03:31:40;;;;;;;5.03;3.67;;;;;;;9.87;100.00;99563.44;5053726;28;20029;-66
2023/11/05 03:34:06;;;;;;;4.85;3.72;;;;;;;9.98;100.00;99566.31;5053866;28;20085;-67
2023/11/05 03:36:31;;;;;;;9.10;4.00;;;;;;;9.98;100.00;99562.84;5053787;28;20056;-67
2023/11/05 03:38:57;;;;;;;6.82;3.72;;;;;;;10.08;100.00;99575.16;5053720;28;20040;-67
2023/11/05 03:41:22;;;;;;;6.57;4.03;;;;;;;9.98;100.00;99596.34;5053358;28;20036;-68
2023/11/05 03:43:48;;;;;;;6.13;3.45;;;;;;;10.05;100.00;99580.22;5053392;28;20485;-67
2023/11/05 03:46:14;;;;;;;5.78;3.75;;;;;;;10.11;100.00;99579.50;5053531;28;20496;-68
2023/11/05 03:48:41;;;;;;;8.07;3.78;;;;;;;10.02;100.00;99573.28;5053081;28;20037;-67
2023/11/05 03:51:15;;;;;;;6.13;3.60;;;;;;;10.00;100.00;99574.94;5053507;28;20037;-68
2023/11/05 03:53:41;;;;;;;6.68;3.50;;;;;;;9.96;100.00;99580.00;5053112;28;20090;-69
2023/11/05 03:56:08;;;;;;;5.88;3.72;;;;;;;9.58;100.00;99520.59;5001358;28;20120;-68
2023/11/05 03:58:34;;;;;;;6.07;3.47;;;;;;;9.88;100.00;99570.34;5053215;28;20021;-68
2023/11/05 04:00:59;;;;;;;5.55;3.67;;;;;;;9.97;100.00;99592.91;5052973;28;20449;-67
2023/11/05 04:03:25;;;;;;;6.15;3.20;;;;;;;9.96;100.00;99605.78;5052968;28;20036;-68
2023/11/05 04:05:51;;;;;;;6.30;3.20;;;;;;;9.78;100.00;99577.81;5053472;28;20438;-67
2023/11/05 04:08:16;;;;;;;6.10;3.25;;;;;;;9.88;100.00;99588.41;5052714;28;20400;-68
2023/11/05 04:10:42;;;;;;;4.93;3.25;;;;;;;9.96;100.00;99596.31;5053117;28;20074;-68
2023/11/05 04:13:07;;;;;;;4.65;3.17;;;;;;;9.88;100.00;99588.41;5052660;28;20472;-71
2023/11/05 04:15:32;;;;;;;4.50;3.05;;;;;;;9.85;100.00;99597.75;5053016;28;20045;-66
2023/11/05 04:17:58;;;;;;;5.88;3.50;;;;;;;9.48;100.00;99553.88;5052090;28;20110;-68
2023/11/05 04:20:23;;;;;;;5.50;3.63;;;;;;;9.63;100.00;99598.91;5052863;28;20021;-67
2023/11/05 04:22:49;;;;;;;5.88;3.53;;;;;;;9.05;100.00;99520.09;5052715;28;20032;-68
2023/11/05 04:25:15;;;;;;;5.57;3.60;;;;;;;9.28;100.00;99599.66;5052492;28;20099;-68
2023/11/05 04:27:40;;;;;;;6.70;4.40;;;;;;;9.21;100.00;99606.38;5052731;28;20025;-69
2023/11/05 04:30:06;;;;;;;6.95;3.63;;;;;;;9.21;100.00;99611.50;5052783;28;20078;-69
2023/11/05 04:32:31;;;;;;;6.25;3.90;;;;;;;9.23;100.00;99625.31;5052756;28;20029;-67
2023/11/05 04:34:57;;;;;;;7.93;3.75;;;;;;;9.27;100.00;99634.00;5053027;28;20411;-68
2023/11/05 04:37:22;;;;;;;6.03;3.63;;;;;;;9.32;100.00;99637.59;5052703;28;20391;-67
2023/11/05 04:39:48;;;;;;;7.13;3.80;;;;;;;9.33;100.00;99628.16;5052018;28;20025;-68
2023/11/05 04:42:13;;;;;;;7.57;3.50;;;;;;;9.31;100.00;99630.69;5052289;28;20449;-68
2023/11/05 04:44:39;;;;;;;8.65;4.03;;;;;;;9.28;100.00;99635.72;5052506;28;20029;-67
2023/11/05 04:47:05;;;;;;;6.97;3.92;;;;;;;9.05;100.00;99606.75;5052366;28;20047;-68
2023/11/05 04:49:31;;;;;;;9.48;3.60;;;;;;;9.16;100.00;99645.69;5052545;28;20036;-68
2023/11/05 04:51:56;;;;;;;9.38;3.78;;;;;;;9.17;100.00;99632.88;5016485;28;20044;-67
2023/11/05 04:54:22;;;;;;;7.47;3.65;;;;;;;9.13;100.00;99625.88;5034044;28;20597;-68
2023/11/05 04:56:47;;;;;;;6.68;3.67;;;;;;;9.05;100.00;99638.53;5052171;28;20033;-67
2023/11/05 04:59:13;;;;;;;15.05;3.65;;;;;;;9.05;100.00;99640.22;5052162;28;20080;-68
2023/11/05 05:01:38;;;;;;;7.43;3.05;;;;;;;9.10;100.00;99648.97;5052124;28;20535;-68
2023/11/05 05:04:04;;;;;;;7.95;3.60;;;;;;;9.15;100.00;99642.25;5051934;28;20664;-68
2023/11/05 05:06:29;;;;;;;6.78;3.45;;;;;;;9.12;100.00;99636.13;5051769;28;20029;-67
2023/11/05 05:08:55;;;;;;;7.05;3.33;;;;;;;9.10;100.00;99651.53;5052043;28;20111;-68
2023/11/05 05:11:21;;;;;;;12.88;5.45;;;;;;;8.63;100.00;99559.19;5051746;28;20459;-68
2023/11/05 05:13:46;;;;;;;32.25;7.88;;;;;;;9.23;100.00;99643.34;5051901;28;20017;-68
2023/11/05 05:16:16;;;;;;;19.67;10.25;;;;;;;9.27;100.00;99627.97;5051549;28;20049;-67
2023/11/05 05:18:42;;;;;;;18.95;10.30;;;;;;;9.45;100.00;99646.53;5051893;28;20029;-68
2023/11/05 05:21:08;;;;;;;17.70;8.68;;;;;;;9.31;100.00;99640.09;5051271;28;20047;-69
2023/11/05 05:23:33;;;;;;;13.82;7.07;;;;;;;9.20;100.00;99647.53;5051345;28;20479;-67
2023/11/05 05:25:59;;;;;;;12.73;6.65;;;;;;;9.21;100.00;99650.16;5051633;28;20068;-68
2023/11/05 05:28:24;;;;;;;13.60;6.43;;;;;;;9.06;100.00;99649.72;5050589;28;20029;-67
2023/11/05 05:30:50;;;;;;;14.80;6.38;;;;;;;8.97;100.00;99631.41;5051699;28;20033;-68
2023/11/05 05:33:15;;;;;;;11.57;6.00;;;;;;;8.95;100.00;99664.81;5051833;28;20029;-66
2023/11/05 05:35:41;;;;;;;12.70;5.22;;;;;;;8.84;100.00;99667.06;5051528;28;20028;-67
2023/11/05 05:38:06;;;;;;;10.32;4.68;;;;;;;8.34;100.00;99597.72;5051419;28;20450;-68
2023/11/05 05:40:32;;;;;;;9.40;4.18;;;;;;;8.61;100.00;99662.91;5050993;28;20029;-66
2023/11/05 05:42:58;;;;;;;10.93;3.63;;;;;;;8.60;100.00;99650.84;5051289;28;20044;-67
2023/11/05 05:45:23;;;;;;;10.40;3.33;;;;;;;8.92;100.00;99675.00;5051575;28;20029;-68
2023/11/05 05:47:49;;;;;;;6.25;3.20;;;;;;;9.11;100.00;99678.16;5051347;28;20079;-67
2023/11/05 05:50:14;;;;;;;8.68;4.40;;;;;;;9.23;100.00;99663.06;5051304;28;20080;-68
2023/11/05 05:52:40;;;;;;;7.00;4.60;;;;;;;9.48;100.00;99681.81;5051051;28;20048;-72
2023/11/05 05:55:09;;;;;;;11.10;5.00;;;;;;;9.52;100.00;99674.22;5050976;28;20025;-66
2023/11/05 05:57:36;;;;;;;10.15;5.05;;;;;;;8.94;100.00;99523.19;5050872;28;20057;-67
2023/11/05 06:00:04;;;;;;;9.77;4.90;;;;;;;9.88;100.00;99662.28;5050958;28;20072;-66
2023/11/05 06:02:29;;;;;;;7.47;4.93;;;;;;;9.90;100.00;99665.78;5050628;28;20418;-68
2023/11/05 06:04:55;;;;;;;7.15;5.40;;;;;;;9.86;100.00;99675.13;5050475;28;20078;-66
2023/11/05 06:07:21;;;;;;;9.75;6.55;;;;;;;10.12;100.00;99656.91;5050803;28;20032;-67
2023/11/05 06:09:48;;;;;;;9.32;6.05;;;;;;;10.29;100.00;99628.06;5050833;28;20024;-67
2023/11/05 06:12:13;;;;;;;8.50;5.60;;;;;;;10.63;100.00;99659.88;5031794;28;20135;-68
2023/11/05 06:14:39;;;;;;;10.73;7.22;;;;;;;10.78;100.00;99677.44;5050310;28;20096;-67
2023/11/05 06:17:04;;;;;;;15.13;9.18;;;;;;;10.97;100.00;99676.16;5049551;28;20513;-68
2023/11/05 06:19:30;;;;;;;9.88;6.53;;;;;;;11.19;100.00;99668.88;5050264;28;20185;-68
2023/11/05 06:21:55;;;;;;;7.32;5.45;;;;;;;11.07;100.00;99615.25;5049991;28;20037;-68
2023/11/05 06:24:21;;;;;;;8.90;5.38;;;;;;;11.60;100.00;99676.59;5050312;28;20021;-67
2023/11/05 06:26:46;;;;;;;7.25;5.10;;;;;;;11.71;100.00;99644.06;5050591;28;20028;-67
2023/11/05 06:29:12;;;;;;;9.43;5.47;;;;;;;11.59;100.00;99599.88;5050424;28;20024;-67
2023/11/05 06:31:37;;;;;;;8.68;5.22;;;;;;;11.94;100.00;99665.22;5050186;28;20031;-68
2023/11/05 06:34:04;;;;;;;8.20;4.60;;;;;;;11.92;100.00;99656.53;5050237;28;20021;-67
2023/11/05 06:36:30;;;;;;;8.15;3.72;;;;;;;11.61;100.00;99612.03;5050187;28;20025;-67
2023/11/05 06:38:55;;;;;;;7.95;3.88;;;;;;;11.35;100.00;99583.06;5049877;28;20021;-68
2023/11/05 06:41:21;;;;;;;7.07;3.50;;;;;;;11.81;100.00;99652.88;5049690;28;20095;-68
2023/11/05 06:43:46;;;;;;;6.10;3.97;;;;;;;11.76;100.00;99658.00;5050134;28;20410;-66
2023/11/05 06:46:11;;;;;;;8.85;4.07;;;;;;;11.73;100.00;99652.75;5049884;28;20477;-68
2023/11/05 06:48:37;;;;;;;8.18;4.10;;;;;;;11.72;100.00;99648.41;5049937;28;20685;-70
2023/11/05 06:51:02;;;;;;;6.25;4.15;;;;;;;11.26;100.00;99588.06;5049241;28;20465;-67
2023/11/05 06:53:28;;;;;;;7.10;4.05;;;;;;;11.63;100.00;99643.94;5049674;28;20106;-68
2023/11/05 06:55:54;;;;;;;6.72;3.45;;;;;;;11.57;100.00;99632.63;5048136;28;20546;-68
2023/11/05 06:58:19;;;;;;;7.30;4.45;;;;;;;11.60;100.00;99625.78;5047827;28;20082;-68
2023/11/05 07:00:44;;;;;;;12.27;5.15;;;;;;;11.05;100.00;99534.28;5049347;28;20028;-67
2023/11/05 07:03:11;;;;;;;11.10;5.40;;;;;;;11.56;100.00;99617.94;5050073;28;20444;-67
2023/11/05 07:05:37;;;;;;;7.13;4.50;;;;;;;11.48;100.00;99610.03;5045027;28;20036;-69
2023/11/05 07:08:03;;;;;;;10.43;4.88;;;;;;;11.58;100.00;99613.69;5049965;28;20025;-69
2023/11/05 07:10:29;;;;;;;14.63;4.47;;;;;;;11.67;100.00;99620.75;5049262;28;20032;-69
2023/11/05 07:12:54;;;;;;;10.77;4.15;;;;;;;11.70;100.00;99624.25;5035254;28;20033;-69
2023/11/05 07:15:20;;;;;;;14.77;4.70;;;;;;;11.82;100.00;99629.66;5041412;28;20578;-69
2023/11/05 07:17:46;;;;;;;7.95;4.47;;;;;;;11.94;100.00;99633.31;5048820;28;20029;-68
2023/11/05 07:20:12;;;;;;;8.82;4.93;;;;;;;12.16;100.00;99628.53;5048733;28;20036;-68
2023/11/05 07:22:38;;;;;;;14.43;6.18;;;;;;;12.23;100.00;99635.56;5050007;28;20126;-68
2023/11/05 07:25:05;;;;;;;13.70;8.40;;;;;;;12.07;100.00;99598.19;5049898;28;20523;-69
2023/11/05 07:27:31;;;;;;;15.38;8.85;;;;;;;12.07;100.00;99619.75;5030942;28;20041;-69
2023/11/05 07:29:57;;;;;;;19.00;8.98;;;;;;;12.06;100.00;99612.84;5049892;28;20036;-69
2023/11/05 07:32:22;;;;;;;15.98;8.57;;;;;;;12.20;100.00;99617.38;5049575;28;20029;-69
2023/11/05 07:34:48;;;;;;;14.25;7.95;;;;;;;12.30;100.00;99608.94;5047559;28;20451;-68
2023/11/05 07:37:13;;;;;;;11.25;7.60;;;;;;;12.35;100.00;99599.53;5048183;28;20025;-69
2023/11/05 07:39:39;;;;;;;13.93;7.95;;;;;;;12.41;100.00;99594.44;5046387;28;20159;-72
2023/11/05 07:42:07;;;;;;;13.35;6.50;;;;;;;12.07;100.00;99544.72;5049141;28;20086;-68
2023/11/05 07:44:33;;;;;;;11.45;6.90;;;;;;;12.44;100.00;99593.63;5049378;28;20060;-68
2023/11/05 07:46:59;;;;;;;14.05;7.00;;;;;;;12.57;100.00;99592.06;5048900;28;20100;-69
2023/11/05 07:49:24;;;;;;;13.57;7.25;;;;;;;12.67;100.00;99590.47;5048723;28;20021;-69
2023/11/05 07:51:50;;;;;;;9.73;6.32;;;;;;;12.75;100.00;99584.56;5049905;28;20389;-66
2023/11/05 07:54:16;;;;;;;12.02;6.50;;;;;;;12.79;100.00;99591.53;5052845;28;20100;-67
2023/11/05 07:56:42;;;;;;;15.65;6.38;;;;;;;12.88;100.00;99585.59;5052777;28;20111;-68
2023/11/05 07:59:07;;;;;;;13.38;6.00;;;;;;;12.94;100.00;99579.63;5050065;28;20067;-68
2023/11/05 08:01:35;;;;;;;11.85;5.45;;;;;;;13.04;100.00;99581.47;5034604;28;20021;-69
2023/11/05 08:04:00;;;;;;;14.95;5.55;;;;;;;13.21;100.00;99584.28;5052635;28;20029;-68
2023/11/05 08:06:26;;;;;;;9.10;5.38;;;;;;;12.99;100.00;99530.47;5052734;28;20020;-68
2023/11/05 08:08:51;;;;;;;10.45;5.28;;;;;;;13.41;100.00;99575.91;5052409;28;20071;-69
2023/11/05 08:11:17;;;;;;;11.27;4.50;;;;;;;13.54;100.00;99589.88;5051155;28;20025;-69
2023/11/05 08:13:43;;;;;;;8.50;4.47;;;;;;;13.37;100.00;99541.31;5051684;28;20585;-68
2023/11/05 08:16:09;;;;;;;7.90;4.80;;;;;;;13.92;100.00;99589.38;5000772;28;20554;-69
2023/11/05 08:18:35;;;;;;;7.65;4.68;;;;;;;13.87;100.00;99526.22;5053062;28;20082;-68
2023/11/05 08:21:00;;;;;;;7.80;4.63;;;;;;;14.27;100.00;99583.63;5052446;28;20060;-67
2023/11/05 08:23:26;;;;;;;8.63;4.32;;;;;;;13.90;100.00;99514.09;5052663;28;20021;-68
2023/11/05 08:25:52;;;;;;;10.65;4.47;;;;;;;14.37;100.00;99579.38;5052981;28;20029;-67
2023/11/05 08:28:17;;;;;;;12.23;4.10;;;;;;;14.33;100.00;99565.50;5034959;28;20112;-68
2023/11/05 08:30:43;;;;;;;8.95;4.10;;;;;;;14.15;100.00;99510.84;5052426;28;20044;-70
2023/11/05 08:33:09;;;;;;;8.20;3.38;;;;;;;14.40;100.00;99574.19;5052423;28;20029;-68
2023/11/05 08:35:35;;;;;;;8.82;4.30;;;;;;;14.63;100.00;99563.94;5052735;28;20116;-69
2023/11/05 08:38:01;;;;;;;6.05;3.20;;;;;;;14.68;100.00;99551.88;5017232;28;20120;-68
2023/11/05 08:40:26;;;;;;;5.72;3.30;;;;;;;14.87;100.00;99559.78;5052786;28;20036;-68
2023/11/05 08:42:52;;;;;;;10.27;4.00;;;;;;;14.88;100.00;99551.13;5052649;28;20029;-69
2023/11/05 08:45:18;;;;;;;7.53;3.40;;;;;;;15.03;100.00;99540.78;5052770;28;20430;-70
2023/11/05 08:47:43;;;;;;;4.05;2.28;;;;;;;15.20;100.00;99545.16;5052377;28;20076;-69
2023/11/05 08:50:09;;;;;;;7.63;1.90;;;;;;;15.47;100.00;99527.91;5017821;28;20032;-69
2023/11/05 08:52:35;;;;;;;3.90;1.77;;;;;;;15.77;100.00;99524.44;5052541;28;20033;-68
2023/11/05 08:55:03;;;;;;;2.05;1.48;;;;;;;15.88;100.00;99508.88;5052121;28;20489;-68
2023/11/05 08:57:28;;;;;;;3.58;1.45;;;;;;;16.10;100.00;99494.13;5052054;28;20063;-68
2023/11/05 08:59:54;;;;;;;2.33;1.00;;;;;;;16.50;100.00;99524.44;5052542;28;20021;-68
2023/11/05 09:02:19;;;;;;;1.83;0.60;;;;;;;16.76;100.00;99539.09;5051911;28;20460;-67
2023/11/05 09:04:46;;;;;;;1.20;0.75;;;;;;;16.95;100.00;99542.56;5052060;28;20027;-67
2023/11/05 09:07:11;;;;;;;2.58;0.93;;;;;;;17.02;99.19;99512.94;5051819;28;20036;-67
2023/11/05 09:09:38;;;;;;;2.42;1.20;;;;;;;17.29;96.32;99522.38;5051979;28;20024;-69
2023/11/05 09:12:07;;;;;;;1.60;0.80;;;;;;;17.29;94.96;99511.94;5051685;28;20036;-67
2023/11/05 09:14:33;;;;;;;1.25;0.70;;;;;;;17.57;95.31;99534.38;5051604;28;20457;-68
2023/11/05 09:16:59;;;;;;;2.70;1.30;;;;;;;17.67;95.15;99519.53;5051419;28;20113;-70
2023/11/05 09:19:24;;;;;;;1.88;1.10;;;;;;;17.86;95.03;99510.69;5031992;28;20108;-68
2023/11/05 09:21:50;;;;;;;1.50;0.85;;;;;;;17.95;92.97;99509.75;5031821;28;20063;-66
2023/11/05 09:24:15;;;;;;;1.77;0.70;;;;;;;17.96;94.09;99490.63;5031816;28;20463;-68
2023/11/05 09:26:41;;;;;;;2.78;0.82;;;;;;;18.11;92.60;99503.50;5031865;28;20126;-67
2023/11/05 09:29:06;;;;;;;1.40;0.80;;;;;;;18.11;91.23;99500.91;5031751;28;20033;-73
2023/11/05 09:31:32;;;;;;;1.17;0.70;;;;;;;18.23;92.78;99489.47;5031946;28;20399;-68
2023/11/05 09:33:58;;;;;;;0.77;0.63;;;;;;;18.43;93.39;99485.81;5031803;28;20044;-68
2023/11/05 09:36:23;;;;;;;2.20;0.90;;;;;;;18.50;93.02;99479.59;5031647;28;20025;-68
2023/11/05 09:38:49;;;;;;;2.15;0.70;;;;;;;18.61;91.75;99474.25;5031372;28;20061;-69
2023/11/05 09:41:21;;;;;;;2.42;0.80;;;;;;;18.63;91.40;99459.44;5031427;28;20032;-68
2023/11/05 09:43:50;;;;;;;3.10;1.00;;;;;;;18.73;90.53;99457.56;4996926;28;20045;-68
2023/11/05 09:46:17;;;;;;;1.80;1.10;;;;;;;18.87;90.58;99445.16;5031389;28;20032;-67
2023/11/05 09:48:43;;;;;;;0.70;0.70;;;;;;;19.01;92.21;99441.53;5031331;28;20029;-69
2023/11/05 09:51:12;;;;;;;3.50;0.80;;;;;;;19.12;93.45;99434.38;5031186;28;20450;-68
2023/11/05 09:53:38;;;;;;;2.85;0.90;;;;;;;19.28;89.60;99437.63;5031180;28;20095;-69
2023/11/05 09:56:04;;;;;;;1.92;0.95;;;;;;;19.45;89.05;99416.44;5031184;28;20037;-68
2023/11/05 09:58:30;;;;;;;11.80;2.05;;;;;;;19.29;83.36;99359.97;5031160;28;20117;-68
2023/11/05 10:00:55;;;;;;;2.67;0.65;;;;;;;19.76;75.11;99366.13;5031200;28;20116;-69
2023/11/05 10:03:21;;;;;;;2.35;0.60;;;;;;;20.15;64.79;99374.16;5031248;28;20104;-68
2023/11/05 10:05:47;;;;;;;6.68;0.65;;;;;;;20.30;66.02;99369.50;5031319;28;20427;-68
2023/11/05 10:08:13;;;;;;;2.33;0.63;;;;;;;20.45;63.85;99368.31;5031109;28;20053;-69
2023/11/05 10:10:42;;;;;;;2.83;0.80;;;;;;;20.29;64.17;99297.03;5030760;28;20483;-67
2023/11/05 10:13:08;;;;;;;2.38;0.90;;;;;;;20.70;61.59;99334.56;5031117;28;20026;-68
2023/11/05 10:15:38;;;;;;;1.13;0.50;;;;;;;20.79;59.20;99339.63;5030395;28;20065;-68
2023/11/05 10:18:05;;;;;;;4.13;1.00;;;;;;;20.83;58.67;99332.53;4995490;28;20037;-68
2023/11/05 10:20:31;;;;;;;1.75;0.70;;;;;;;20.58;57.75;99274.53;5031071;28;20029;-68
2023/11/05 10:23:00;;;;;;;2.25;0.70;;;;;;;21.03;56.67;99337.31;5030834;28;20079;-68
2023/11/05 10:25:26;;;;;;;1.13;0.70;;;;;;;21.05;57.25;99338.13;5030828;28;20041;-68
2023/11/05 10:27:53;;;;;;;1.63;0.52;;;;;;;21.07;56.08;99338.09;5030908;28;20029;-66
2023/11/05 10:30:20;;;;;;;2.75;0.60;;;;;;;21.08;56.20;99319.69;5030851;28;20029;-68
2023/11/05 10:32:51;;;;;;;2.72;1.13;;;;;;;21.24;55.56;99320.16;5030866;28;20698;-68
2023/11/05 10:35:32;;;;;;;1.38;0.40;;;;;;;21.20;53.70;99323.78;4979562;28;20557;-67
2023/11/05 10:37:58;;;;;;;4.78;0.90;;;;;;;21.23;53.04;99312.34;5030730;28;20503;-68
2023/11/05 10:40:24;;;;;;;2.42;0.68;;;;;;;21.22;52.18;99305.34;5030342;28;20065;-67
2023/11/05 10:42:51;;;;;;;1.02;0.70;;;;;;;21.16;52.41;99275.75;5030973;28;20049;-68
2023/11/05 10:45:19;;;;;;;3.83;0.60;;;;;;;21.14;51.18;99246.03;5030669;28;20025;-68
2023/11/05 10:47:50;;;;;;;2.33;0.57;;;;;;;21.21;52.28;99291.38;5030653;28;20525;-68
2023/11/05 10:50:22;;;;;;;1.67;0.60;;;;;;;21.22;51.28;99269.50;5030399;28;20038;-68
2023/11/05 10:52:52;;;;;;;2.33;0.60;;;;;;;21.28;51.55;99279.81;5030815;28;20108;-68
2023/11/05 10:55:28;;;;;;;2.22;0.70;;;;;;;21.22;51.64;99261.63;5030273;28;20502;-66
2023/11/05 10:57:54;;;;;;;1.88;0.60;;;;;;;21.26;51.50;99270.25;5030427;28;20021;-68
2023/11/05 11:00:23;;;;;;;3.75;1.17;;;;;;;21.25;51.17;99265.91;5030436;28;20087;-69
2023/11/05 11:02:49;;;;;;;0.90;0.60;;;;;;;21.09;51.40;99244.47;5030232;28;20492;-67
2023/11/05 11:05:16;;;;;;;2.60;0.65;;;;;;;21.17;50.97;99256.47;4990697;28;20045;-69
2023/11/05 11:07:42;;;;;;;0.88;0.40;;;;;;;21.28;51.63;99255.31;5037552;28;20033;-68
2023/11/05 11:10:12;;;;;;;4.25;1.23;;;;;;;21.30;52.75;99238.63;5049649;28;20472;-71
2023/11/05 11:12:38;;;;;;;4.00;0.88;;;;;;;20.93;50.96;99199.38;5049936;28;20031;-71
2023/11/05 11:15:06;;;;;;;2.15;0.55;;;;;;;21.37;51.35;99247.22;5048329;28;20049;-70
2023/11/05 11:17:38;;;;;;;1.25;0.43;;;;;;;21.29;51.03;99236.06;5049163;28;20029;-70
2023/11/05 11:20:09;;;;;;;1.75;0.65;;;;;;;21.16;50.94;99204.03;5048088;28;20632;-70